Time;durP1;ratioP1;P1;durP2;ratioP2;P2;SDS_P1;SDS_P2;PMS_P1;PMS_P2;Temp;Humidity;BMP_temperature;BMP_pressure;BME280_temperature;BME280_humidity;BME280_pressure;Samples;Min_cycle;Max_cycle;Signal;HPM_P1;HPM_P2
2023/09/15 00:00:11;;;;;;;7.13;2.73;;;14.30;99.90;;;;;;5090908;28;20012;-74
2023/09/15 00:02:37;;;;;;;5.80;2.60;;;14.30;99.90;;;;;;5073172;28;20037;-74
2023/09/15 00:05:03;;;;;;;5.17;2.50;;;14.30;99.90;;;;;;5093142;28;21112;-74
2023/09/15 00:07:29;;;;;;;7.07;3.07;;;14.30;99.90;;;;;;5092883;28;20067;-74
2023/09/15 00:09:55;;;;;;;6.37;3.13;;;14.20;99.90;;;;;;5073599;28;20027;-76
2023/09/15 00:12:20;;;;;;;4.47;2.63;;;14.20;99.90;;;;;;5092290;28;20021;-75
2023/09/15 00:14:46;;;;;;;11.47;4.37;;;14.10;99.90;;;;;;5091669;28;20103;-74
2023/09/15 00:17:14;;;;;;;7.20;3.47;;;14.10;99.90;;;;;;5073085;28;20029;-74
2023/09/15 00:19:42;;;;;;;7.27;3.50;;;14.10;99.90;;;;;;5091329;28;20015;-74
2023/09/15 00:22:10;;;;;;;4.57;2.20;;;14.10;99.90;;;;;;5073701;28;20024;-75
2023/09/15 00:24:36;;;;;;;3.93;2.10;;;14.00;99.90;;;;;;5092244;28;20017;-73
2023/09/15 00:27:02;;;;;;;3.97;2.20;;;14.00;99.90;;;;;;5091308;28;20040;-76
2023/09/15 00:29:27;;;;;;;5.03;2.77;;;14.00;99.90;;;;;;5090744;28;20048;-75
2023/09/15 00:31:55;;;;;;;6.37;3.30;;;14.00;99.90;;;;;;5091351;28;20029;-74
2023/09/15 00:34:20;;;;;;;13.87;2.27;;;14.00;99.90;;;;;;5072931;28;20044;-73
2023/09/15 00:36:49;;;;;;;5.83;2.17;;;13.90;99.90;;;;;;5072085;28;20023;-76
2023/09/15 00:39:15;;;;;;;2.87;1.87;;;13.90;99.90;;;;;;5075013;28;20024;-74
2023/09/15 00:41:40;;;;;;;6.53;2.30;;;13.90;99.90;;;;;;5075579;28;20063;-73
2023/09/15 00:44:08;;;;;;;2.60;1.77;;;13.90;99.90;;;;;;5091077;28;20036;-75
2023/09/15 00:46:36;;;;;;;3.67;1.83;;;13.90;99.90;;;;;;5091984;28;20031;-74
2023/09/15 00:49:02;;;;;;;4.80;2.33;;;13.80;99.90;;;;;;5072116;28;20024;-78
2023/09/15 00:51:28;;;;;;;7.33;2.47;;;13.80;99.90;;;;;;5072461;28;20028;-73
2023/09/15 00:53:58;;;;;;;7.30;2.90;;;13.70;99.90;;;;;;5073195;28;20044;-73
2023/09/15 00:56:25;;;;;;;4.70;2.67;;;13.70;99.90;;;;;;5091252;28;20024;-73
2023/09/15 00:58:50;;;;;;;5.43;2.60;;;13.60;99.90;;;;;;5072440;28;20012;-73
2023/09/15 01:01:19;;;;;;;5.43;2.30;;;13.60;99.90;;;;;;5073283;28;20012;-75
2023/09/15 01:03:47;;;;;;;6.03;2.87;;;13.60;99.90;;;;;;5073214;28;20294;-75
2023/09/15 01:06:16;;;;;;;7.33;3.20;;;13.50;99.90;;;;;;5092071;28;20017;-73
2023/09/15 01:08:42;;;;;;;5.40;2.10;;;13.50;99.90;;;;;;5090052;28;20063;-75
2023/09/15 01:11:08;;;;;;;8.07;2.40;;;13.50;99.90;;;;;;5073771;28;20354;-73
2023/09/15 01:13:34;;;;;;;3.43;2.30;;;13.40;99.90;;;;;;5074217;28;20028;-74
2023/09/15 01:16:18;;;;;;;7.10;3.10;;;13.40;99.90;;;;;;5070684;28;20045;-74
2023/09/15 01:19:15;;;;;;;4.73;2.80;;;13.40;99.90;;;;;;5089495;28;20101;-74
2023/09/15 01:21:57;;;;;;;7.63;4.10;;;13.40;99.90;;;;;;5091497;28;20043;-74
2023/09/15 01:24:46;;;;;;;4.20;2.40;;;13.30;99.90;;;;;;5091094;28;20041;-74
2023/09/15 01:27:24;;;;;;;4.47;2.40;;;13.30;99.90;;;;;;5090370;28;20084;-74
2023/09/15 01:29:49;;;;;;;5.53;2.40;;;13.20;99.90;;;;;;5090598;28;20021;-74
2023/09/15 01:32:18;;;;;;;8.43;2.70;;;13.20;99.90;;;;;;5091525;28;20036;-73
2023/09/15 01:34:50;;;;;;;6.80;4.50;;;13.20;99.90;;;;;;5072743;28;20028;-74
2023/09/15 01:37:16;;;;;;;5.85;2.78;;;13.20;99.90;;;;;;5072026;28;20088;-74
2023/09/15 01:39:42;;;;;;;4.67;2.70;;;13.20;99.90;;;;;;5090511;28;20024;-74
2023/09/15 01:42:08;;;;;;;8.10;5.30;;;13.20;99.90;;;;;;5090755;28;20054;-74
2023/09/15 01:44:34;;;;;;;15.20;3.50;;;13.10;99.90;;;;;;5091467;28;20029;-74
2023/09/15 01:46:59;;;;;;;4.70;2.27;;;13.10;99.90;;;;;;5091672;28;20021;-75
2023/09/15 01:49:29;;;;;;;3.57;2.00;;;13.10;99.90;;;;;;5074567;28;20028;-74
2023/09/15 01:51:56;;;;;;;5.33;2.10;;;13.00;99.90;;;;;;5072291;28;20029;-74
2023/09/15 01:54:22;;;;;;;6.60;3.30;;;13.10;99.90;;;;;;5070798;28;20016;-73
2023/09/15 01:56:49;;;;;;;6.30;2.80;;;13.10;99.90;;;;;;5072226;28;20044;-75
2023/09/15 01:59:15;;;;;;;6.93;2.43;;;13.00;99.90;;;;;;5090742;28;20040;-74
2023/09/15 02:01:41;;;;;;;8.47;2.47;;;13.00;99.90;;;;;;5070505;28;20031;-74
2023/09/15 02:04:07;;;;;;;6.53;2.97;;;13.00;99.90;;;;;;5072788;28;20080;-74
2023/09/15 02:06:33;;;;;;;5.20;2.20;;;13.10;99.90;;;;;;5072872;28;20020;-74
2023/09/15 02:08:59;;;;;;;2.90;1.93;;;13.00;99.90;;;;;;5089756;28;20048;-74
2023/09/15 02:11:24;;;;;;;3.80;2.53;;;13.00;99.90;;;;;;5072510;28;20021;-74
2023/09/15 02:13:50;;;;;;;8.27;3.60;;;12.90;99.90;;;;;;5089521;28;20031;-73
2023/09/15 02:16:16;;;;;;;5.70;2.73;;;12.90;99.90;;;;;;5072313;28;20032;-74
2023/09/15 02:18:44;;;;;;;6.70;3.00;;;12.90;99.90;;;;;;5071802;28;20036;-74
2023/09/15 02:21:10;;;;;;;5.37;2.43;;;12.80;99.90;;;;;;5091469;28;20035;-74
2023/09/15 02:23:35;;;;;;;6.57;2.20;;;12.80;99.90;;;;;;5072580;28;20029;-74
2023/09/15 02:26:04;;;;;;;3.60;1.90;;;12.90;99.90;;;;;;5091878;28;20104;-75
2023/09/15 02:28:31;;;;;;;6.67;2.10;;;12.80;99.90;;;;;;5072856;28;20048;-76
2023/09/15 02:30:57;;;;;;;7.30;2.33;;;12.80;99.90;;;;;;5073805;28;20082;-74
2023/09/15 02:33:23;;;;;;;3.00;2.00;;;12.80;99.90;;;;;;5072178;28;20021;-74
2023/09/15 02:35:50;;;;;;;4.23;2.00;;;12.80;99.90;;;;;;5074300;28;20032;-75
2023/09/15 02:38:16;;;;;;;3.70;1.67;;;12.80;99.90;;;;;;5075105;28;20025;-74
2023/09/15 02:40:47;;;;;;;5.57;2.27;;;12.70;99.90;;;;;;5076487;28;20059;-74
2023/09/15 02:43:13;;;;;;;4.10;2.10;;;12.80;99.90;;;;;;5073783;28;20013;-74
2023/09/15 02:45:41;;;;;;;5.23;2.20;;;12.70;99.90;;;;;;5074668;28;20088;-74
2023/09/15 02:48:08;;;;;;;4.50;2.23;;;12.70;99.90;;;;;;5075782;28;20028;-75
2023/09/15 02:50:34;;;;;;;6.17;2.73;;;12.70;99.90;;;;;;5095831;28;20017;-76
2023/09/15 02:53:02;;;;;;;4.70;2.50;;;12.70;99.90;;;;;;5076483;28;20043;-76
2023/09/15 02:55:28;;;;;;;6.17;2.53;;;12.70;99.90;;;;;;5073571;28;20043;-74
2023/09/15 02:57:54;;;;;;;3.67;2.57;;;12.70;99.90;;;;;;5076806;28;20012;-77
2023/09/15 03:00:20;;;;;;;7.90;3.27;;;12.60;99.90;;;;;;5072728;28;20048;-73
2023/09/15 03:02:47;;;;;;;6.90;3.10;;;12.60;99.90;;;;;;5095031;28;20024;-75
2023/09/15 03:05:13;;;;;;;5.33;1.83;;;12.60;99.90;;;;;;5075696;28;20012;-74
2023/09/15 03:07:39;;;;;;;9.07;3.07;;;12.50;99.90;;;;;;5075211;28;20036;-75
2023/09/15 03:10:09;;;;;;;8.73;3.73;;;12.50;99.90;;;;;;5076129;28;20078;-74
2023/09/15 03:12:37;;;;;;;5.50;2.50;;;12.50;99.90;;;;;;5095062;28;20025;-74
2023/09/15 03:15:08;;;;;;;4.60;2.50;;;12.50;99.90;;;;;;5091963;28;20041;-74
2023/09/15 03:17:37;;;;;;;5.80;2.47;;;12.50;99.90;;;;;;5093570;28;20021;-75
2023/09/15 03:20:15;;;;;;;4.30;1.97;;;12.60;99.90;;;;;;5077490;28;20016;-75
2023/09/15 03:22:42;;;;;;;5.33;2.70;;;12.40;99.90;;;;;;5092915;28;20133;-75
2023/09/15 03:25:13;;;;;;;7.63;2.53;;;12.50;99.90;;;;;;5094025;28;20009;-74
2023/09/15 03:27:41;;;;;;;3.63;1.87;;;12.40;99.90;;;;;;5074737;28;20016;-76
2023/09/15 03:30:07;;;;;;;4.07;1.73;;;12.40;99.90;;;;;;5072244;28;20028;-77
2023/09/15 03:32:36;;;;;;;4.57;2.17;;;12.40;99.90;;;;;;5093064;28;20025;-76
2023/09/15 03:35:04;;;;;;;8.43;2.57;;;12.40;99.90;;;;;;5074711;28;20029;-74
2023/09/15 03:37:32;;;;;;;5.13;3.40;;;12.40;99.90;;;;;;5093365;28;20017;-73
2023/09/15 03:40:05;;;;;;;5.43;3.30;;;12.40;99.90;;;;;;5073795;28;20025;-74
2023/09/15 03:42:36;;;;;;;4.73;2.30;;;12.30;99.90;;;;;;5075518;28;20035;-74
2023/09/15 03:45:04;;;;;;;4.93;2.27;;;12.30;99.90;;;;;;5093701;28;20105;-75
2023/09/15 03:47:29;;;;;;;4.10;1.97;;;12.20;99.90;;;;;;5075732;28;20100;-74
2023/09/15 03:49:55;;;;;;;6.60;2.50;;;12.30;99.90;;;;;;5093542;28;20028;-75
2023/09/15 03:52:21;;;;;;;13.03;2.80;;;12.20;99.90;;;;;;5070654;28;20175;-74
2023/09/15 03:54:46;;;;;;;6.33;2.40;;;12.20;99.90;;;;;;5073861;28;20056;-75
2023/09/15 03:57:12;;;;;;;6.03;2.60;;;12.20;99.90;;;;;;5075110;28;20277;-76
2023/09/15 03:59:40;;;;;;;5.63;2.50;;;12.20;99.90;;;;;;5092570;28;20090;-76
2023/09/15 04:02:10;;;;;;;5.63;2.20;;;12.10;99.90;;;;;;5075756;28;20021;-73
2023/09/15 04:04:36;;;;;;;8.87;2.73;;;12.20;99.90;;;;;;5073919;28;20092;-74
2023/09/15 04:07:05;;;;;;;5.13;2.30;;;12.20;99.90;;;;;;5074131;28;20017;-75
2023/09/15 04:09:30;;;;;;;4.27;1.90;;;12.20;99.90;;;;;;5072070;28;20048;-75
2023/09/15 04:11:56;;;;;;;6.73;2.70;;;12.10;99.90;;;;;;5074249;28;20025;-73
2023/09/15 04:14:22;;;;;;;14.93;3.43;;;12.20;99.90;;;;;;5090877;28;20029;-75
2023/09/15 04:16:47;;;;;;;10.27;3.20;;;12.10;99.90;;;;;;5073534;28;20128;-75
2023/09/15 04:19:13;;;;;;;11.40;3.50;;;12.10;99.90;;;;;;5075720;28;20047;-74
2023/09/15 04:21:39;;;;;;;5.07;2.73;;;12.10;99.90;;;;;;5075895;28;20020;-74
2023/09/15 04:24:07;;;;;;;12.50;3.70;;;12.10;99.90;;;;;;5073287;28;20037;-75
2023/09/15 04:26:35;;;;;;;9.20;3.40;;;12.10;99.90;;;;;;5091360;28;20069;-73
2023/09/15 04:29:01;;;;;;;6.60;3.53;;;12.10;99.90;;;;;;5092962;28;20100;-74
2023/09/15 04:31:26;;;;;;;9.07;4.03;;;12.10;99.90;;;;;;5091417;28;20036;-74
2023/09/15 04:33:52;;;;;;;8.67;4.00;;;12.00;99.90;;;;;;5091348;28;20054;-74
2023/09/15 04:36:20;;;;;;;6.50;3.20;;;12.10;99.90;;;;;;5090674;28;20212;-74
2023/09/15 04:38:45;;;;;;;8.70;4.60;;;12.10;99.90;;;;;;5091172;28;20031;-74
2023/09/15 04:41:11;;;;;;;8.97;3.93;;;12.10;99.90;;;;;;5074094;28;20036;-75
2023/09/15 04:43:37;;;;;;;8.90;3.63;;;12.10;99.90;;;;;;5074530;28;20133;-74
2023/09/15 04:46:02;;;;;;;7.87;4.60;;;12.10;99.90;;;;;;5071865;28;20032;-75
2023/09/15 04:48:28;;;;;;;7.37;3.70;;;12.10;99.90;;;;;;5072685;28;20043;-75
2023/09/15 04:50:53;;;;;;;8.93;3.83;;;12.10;99.90;;;;;;5073854;28;20005;-75
2023/09/15 04:53:21;;;;;;;8.23;3.67;;;12.10;99.90;;;;;;5090873;28;20038;-75
2023/09/15 04:55:52;;;;;;;9.07;4.30;;;12.10;99.90;;;;;;5092283;28;20009;-74
2023/09/15 04:58:20;;;;;;;11.40;3.73;;;12.10;99.90;;;;;;5072195;28;20016;-74
2023/09/15 05:00:50;;;;;;;9.23;4.47;;;12.10;99.90;;;;;;5074189;28;20395;-74
2023/09/15 05:03:20;;;;;;;6.97;3.83;;;12.00;99.90;;;;;;5089666;28;20049;-75
2023/09/15 05:05:50;;;;;;;13.47;3.10;;;12.00;99.90;;;;;;5071952;28;20040;-74
2023/09/15 05:08:16;;;;;;;8.80;3.27;;;12.00;99.90;;;;;;5073861;28;20068;-73
2023/09/15 05:10:41;;;;;;;6.90;2.50;;;12.00;99.90;;;;;;5091880;28;20012;-75
2023/09/15 05:13:07;;;;;;;8.20;3.80;;;12.00;99.90;;;;;;5090222;28;20092;-74
2023/09/15 05:15:34;;;;;;;9.13;4.27;;;12.10;99.90;;;;;;5091103;28;20027;-75
2023/09/15 05:18:00;;;;;;;10.43;4.17;;;12.00;99.90;;;;;;5092855;28;20058;-76
2023/09/15 05:20:26;;;;;;;10.03;4.27;;;12.00;99.90;;;;;;5073303;28;20024;-75
2023/09/15 05:22:53;;;;;;;9.97;4.03;;;12.00;99.90;;;;;;5091653;28;20046;-75
2023/09/15 05:25:19;;;;;;;20.37;4.23;;;12.00;99.90;;;;;;5072071;28;20024;-75
2023/09/15 05:27:45;;;;;;;8.07;4.60;;;12.00;99.90;;;;;;5092476;28;20096;-75
2023/09/15 05:30:15;;;;;;;11.43;4.07;;;11.90;99.90;;;;;;5073027;28;20055;-77
2023/09/15 05:32:40;;;;;;;9.43;2.97;;;12.00;99.90;;;;;;5070174;28;20009;-74
2023/09/15 05:35:09;;;;;;;6.57;2.83;;;12.00;99.90;;;;;;5086985;28;20020;-74
2023/09/15 05:37:34;;;;;;;7.07;3.57;;;12.00;99.90;;;;;;5089843;28;20025;-75
2023/09/15 05:40:00;;;;;;;6.60;2.90;;;12.00;99.90;;;;;;5090082;28;20036;-75
2023/09/15 05:42:25;;;;;;;9.23;2.57;;;12.10;99.90;;;;;;5089948;28;20064;-75
2023/09/15 05:44:54;;;;;;;6.20;2.87;;;12.10;99.90;;;;;;5091421;28;20024;-75
2023/09/15 05:47:21;;;;;;;7.60;3.47;;;12.10;99.90;;;;;;5074355;28;20016;-76
2023/09/15 05:49:47;;;;;;;7.70;3.03;;;12.10;99.90;;;;;;5089466;28;20063;-75
2023/09/15 05:52:13;;;;;;;9.87;2.87;;;12.10;99.90;;;;;;5072705;28;20020;-74
2023/09/15 05:54:38;;;;;;;11.57;4.10;;;12.10;99.90;;;;;;5073057;28;20111;-77
2023/09/15 05:57:04;;;;;;;9.77;4.20;;;12.20;99.90;;;;;;5072973;28;20016;-77
2023/09/15 05:59:32;;;;;;;13.30;4.47;;;12.20;99.90;;;;;;5070569;28;20033;-77
2023/09/15 06:01:57;;;;;;;11.13;5.33;;;12.20;99.90;;;;;;5071926;28;20043;-73
2023/09/15 06:04:23;;;;;;;15.47;5.83;;;12.20;99.90;;;;;;5090546;28;20035;-75
2023/09/15 06:06:49;;;;;;;11.03;4.67;;;12.30;99.90;;;;;;5073539;28;20033;-74
2023/09/15 06:09:15;;;;;;;7.60;2.90;;;12.40;99.90;;;;;;5090421;28;20147;-75
2023/09/15 06:11:43;;;;;;;5.83;2.67;;;12.30;99.90;;;;;;5071948;28;20042;-74
2023/09/15 06:14:11;;;;;;;7.90;3.43;;;12.40;99.90;;;;;;5073969;28;20047;-75
2023/09/15 06:16:39;;;;;;;10.93;2.67;;;12.40;99.90;;;;;;5072133;28;20040;-75
2023/09/15 06:19:06;;;;;;;8.13;3.13;;;12.40;99.90;;;;;;5070106;28;20091;-75
2023/09/15 06:21:32;;;;;;;9.63;3.00;;;12.50;99.90;;;;;;5072876;28;20021;-75
2023/09/15 06:24:00;;;;;;;8.63;2.90;;;12.50;99.90;;;;;;5072607;28;20058;-75
2023/09/15 06:26:25;;;;;;;10.87;3.30;;;12.50;99.90;;;;;;5072694;28;20088;-75
2023/09/15 06:28:51;;;;;;;4.47;2.60;;;12.60;99.90;;;;;;5070431;28;20041;-74
2023/09/15 06:31:18;;;;;;;13.83;3.17;;;12.60;99.90;;;;;;5071067;28;20029;-75
2023/09/15 06:33:44;;;;;;;8.63;2.87;;;12.60;99.90;;;;;;5072168;28;20105;-74
2023/09/15 06:36:15;;;;;;;9.03;3.23;;;12.70;99.90;;;;;;5126203;23;20028;-74
2023/09/15 06:38:45;;;;;;;6.33;3.10;;;12.70;99.90;;;;;;5074213;28;20025;-75
2023/09/15 06:41:11;;;;;;;8.03;2.80;;;12.80;99.90;;;;;;5072241;28;20082;-75
2023/09/15 06:43:44;;;;;;;10.17;3.43;;;12.80;99.90;;;;;;5075017;28;20025;-74
2023/09/15 06:46:12;;;;;;;11.73;2.77;;;12.90;99.90;;;;;;5072006;28;20016;-74
2023/09/15 06:48:38;;;;;;;12.97;3.20;;;12.80;99.90;;;;;;5090760;28;20031;-75
2023/09/15 06:51:04;;;;;;;10.07;2.47;;;12.90;99.90;;;;;;5074350;28;20076;-75
2023/09/15 06:53:29;;;;;;;12.80;3.80;;;12.80;99.90;;;;;;5071997;28;20036;-75
2023/09/15 06:56:03;;;;;;;9.80;2.70;;;12.90;99.90;;;;;;5090623;28;20013;-75
2023/09/15 06:58:30;;;;;;;9.93;3.23;;;13.10;99.90;;;;;;5075518;28;20028;-75
2023/09/15 07:00:59;;;;;;;6.10;2.73;;;13.10;99.90;;;;;;5071589;28;20035;-76
2023/09/15 07:03:26;;;;;;;9.40;3.00;;;13.10;99.90;;;;;;5073264;28;20020;-76
2023/09/15 07:05:59;;;;;;;7.33;2.63;;;13.20;99.90;;;;;;5071318;28;20047;-76
2023/09/15 07:08:34;;;;;;;7.97;2.73;;;13.20;99.90;;;;;;5071360;28;20426;-74
2023/09/15 07:11:11;;;;;;;7.80;3.37;;;13.30;99.90;;;;;;5069922;28;20009;-75
2023/09/15 07:13:37;;;;;;;6.23;2.43;;;13.20;99.90;;;;;;5072026;28;20020;-75
2023/09/15 07:16:05;;;;;;;7.27;2.30;;;13.40;99.90;;;;;;5071939;28;20120;-75
2023/09/15 07:18:34;;;;;;;8.63;2.57;;;13.40;99.90;;;;;;5071744;28;20024;-76
2023/09/15 07:21:00;;;;;;;9.97;2.90;;;13.40;99.90;;;;;;5094905;28;20066;-75
2023/09/15 07:23:28;;;;;;;15.53;2.67;;;13.50;99.90;;;;;;5075033;28;20021;-74
2023/09/15 07:25:53;;;;;;;8.93;2.53;;;13.50;99.90;;;;;;5075848;28;20024;-76
2023/09/15 07:28:22;;;;;;;12.60;3.40;;;13.50;99.90;;;;;;5074787;28;20036;-75
2023/09/15 07:30:50;;;;;;;8.53;2.57;;;13.40;99.90;;;;;;5073363;28;20050;-74
2023/09/15 07:33:16;;;;;;;10.53;3.23;;;13.60;99.90;;;;;;5091570;28;20020;-74
2023/09/15 07:35:42;;;;;;;9.70;3.10;;;13.60;99.90;;;;;;5093007;28;20017;-76
2023/09/15 07:38:07;;;;;;;7.40;2.07;;;13.60;99.90;;;;;;5091789;28;20032;-76
2023/09/15 07:40:39;;;;;;;8.65;2.42;;;13.70;99.90;;;;;;5072979;28;20032;-74
2023/09/15 07:43:04;;;;;;;7.20;2.70;;;13.90;99.90;;;;;;5078147;28;20031;-76
2023/09/15 07:45:30;;;;;;;10.65;2.50;;;13.90;99.90;;;;;;5075114;28;20016;-74
2023/09/15 07:47:56;;;;;;;3.92;2.25;;;13.90;99.90;;;;;;5074692;28;20039;-74
2023/09/15 07:50:21;;;;;;;8.15;3.50;;;14.00;99.90;;;;;;5077384;28;20099;-74
2023/09/15 07:52:47;;;;;;;10.10;2.47;;;13.90;99.90;;;;;;5074515;28;20029;-75
2023/09/15 07:55:13;;;;;;;9.20;2.67;;;14.00;99.90;;;;;;5090083;28;20055;-74
2023/09/15 07:57:39;;;;;;;12.35;3.03;;;14.10;99.90;;;;;;5073070;28;20036;-73
2023/09/15 08:00:10;;;;;;;11.73;2.40;;;14.10;99.90;;;;;;5085349;28;20021;-74
2023/09/15 08:02:36;;;;;;;7.43;2.50;;;14.10;99.90;;;;;;5075698;28;20039;-74
2023/09/15 08:05:03;;;;;;;4.65;1.83;;;14.20;99.90;;;;;;5088248;28;20081;-75
2023/09/15 08:07:29;;;;;;;7.57;2.45;;;14.30;99.90;;;;;;5072568;28;20024;-74
2023/09/15 08:09:56;;;;;;;9.98;2.90;;;14.40;99.90;;;;;;5071724;28;20100;-75
2023/09/15 08:12:23;;;;;;;12.50;2.67;;;14.40;99.90;;;;;;5090040;28;20036;-74
2023/09/15 08:14:51;;;;;;;8.60;3.03;;;14.40;99.90;;;;;;5089677;28;20021;-74
2023/09/15 08:17:17;;;;;;;8.02;2.17;;;14.40;99.90;;;;;;5073202;28;20064;-74
2023/09/15 08:19:43;;;;;;;5.53;2.80;;;14.50;99.90;;;;;;5091115;28;20032;-74
2023/09/15 08:22:08;;;;;;;6.45;2.97;;;14.50;99.90;;;;;;5070226;28;20028;-74
2023/09/15 08:24:35;;;;;;;6.43;2.85;;;14.60;99.90;;;;;;5070926;28;20032;-74
2023/09/15 08:27:03;;;;;;;6.03;2.90;;;14.60;99.90;;;;;;5071957;28;20020;-75
2023/09/15 08:29:31;;;;;;;9.18;2.15;;;14.70;99.90;;;;;;5077170;28;20065;-75
2023/09/15 08:31:57;;;;;;;10.40;3.25;;;14.70;99.90;;;;;;5086664;28;20064;-75
2023/09/15 08:34:23;;;;;;;9.60;3.13;;;14.70;99.90;;;;;;5072259;28;20092;-75
2023/09/15 08:36:48;;;;;;;4.88;2.70;;;14.70;99.90;;;;;;5087963;28;20025;-75
2023/09/15 08:39:14;;;;;;;4.88;1.65;;;14.80;99.90;;;;;;5088481;28;20241;-76
2023/09/15 08:41:47;;;;;;;9.93;2.53;;;14.80;99.90;;;;;;5072896;28;20040;-74
2023/09/15 08:44:16;;;;;;;4.97;2.58;;;14.90;99.90;;;;;;5092621;28;20036;-75
2023/09/15 08:46:43;;;;;;;6.13;2.58;;;14.90;99.90;;;;;;5089757;28;20013;-74
2023/09/15 08:49:09;;;;;;;5.25;2.40;;;15.00;99.90;;;;;;5089081;28;20060;-74
2023/09/15 08:51:38;;;;;;;8.00;2.90;;;15.00;99.90;;;;;;5071280;28;20037;-75
2023/09/15 08:54:04;;;;;;;8.70;2.75;;;15.00;99.90;;;;;;5070836;28;20036;-74
2023/09/15 08:56:30;;;;;;;9.90;2.53;;;15.10;99.90;;;;;;5089727;28;20042;-74
2023/09/15 08:58:57;;;;;;;5.65;2.45;;;15.10;99.90;;;;;;5089304;28;20050;-75
2023/09/15 09:01:23;;;;;;;7.05;2.67;;;15.10;99.90;;;;;;5088741;28;20027;-74
2023/09/15 09:03:49;;;;;;;6.28;2.55;;;15.10;99.90;;;;;;5070107;28;20092;-74
2023/09/15 09:06:15;;;;;;;10.75;2.97;;;15.10;99.90;;;;;;5088058;28;20025;-74
2023/09/15 09:08:44;;;;;;;9.50;3.00;;;15.10;99.90;;;;;;5086828;28;20118;-75
2023/09/15 09:11:11;;;;;;;6.68;2.70;;;15.10;99.90;;;;;;5089869;28;20021;-74
2023/09/15 09:13:38;;;;;;;10.10;2.33;;;15.10;99.90;;;;;;5070781;28;20016;-74
2023/09/15 09:16:05;;;;;;;5.72;2.17;;;15.10;99.90;;;;;;5088888;28;20039;-74
2023/09/15 09:18:32;;;;;;;6.35;2.53;;;15.20;99.90;;;;;;5072755;28;20033;-74
2023/09/15 09:20:58;;;;;;;7.22;2.58;;;15.30;99.90;;;;;;5086565;28;20043;-74
2023/09/15 09:23:24;;;;;;;6.28;2.95;;;15.30;99.90;;;;;;5071071;28;20028;-74
2023/09/15 09:25:49;;;;;;;8.05;3.10;;;15.50;99.90;;;;;;5073002;28;20035;-75
2023/09/15 09:28:16;;;;;;;7.55;2.70;;;15.50;99.90;;;;;;5069769;28;20105;-74
2023/09/15 09:30:42;;;;;;;13.45;2.50;;;15.60;99.90;;;;;;5071328;28;20258;-74
2023/09/15 09:33:12;;;;;;;11.20;3.67;;;15.60;99.90;;;;;;5071205;28;20092;-74
2023/09/15 09:35:38;;;;;;;6.20;2.60;;;15.70;99.90;;;;;;5072209;28;20033;-74
2023/09/15 09:38:04;;;;;;;8.68;2.42;;;15.70;99.90;;;;;;5071811;28;20029;-74
2023/09/15 09:40:32;;;;;;;11.05;2.65;;;15.80;99.90;;;;;;5088886;28;20035;-74
2023/09/15 09:43:02;;;;;;;6.18;2.67;;;15.90;99.90;;;;;;5073213;28;20020;-74
2023/09/15 09:45:30;;;;;;;7.85;2.30;;;15.90;99.90;;;;;;5091541;28;20021;-75
2023/09/15 09:47:58;;;;;;;7.32;2.35;;;15.90;99.90;;;;;;5089732;28;20061;-74
2023/09/15 09:50:27;;;;;;;8.57;2.60;;;16.00;99.90;;;;;;5070555;28;20016;-74
2023/09/15 09:52:53;;;;;;;7.22;2.25;;;16.00;99.90;;;;;;5088229;28;20025;-74
2023/09/15 09:55:20;;;;;;;9.98;2.33;;;16.10;99.90;;;;;;5088082;28;20012;-74
2023/09/15 09:57:46;;;;;;;5.03;1.80;;;16.20;99.90;;;;;;5088831;28;20028;-75
2023/09/15 10:00:19;;;;;;;6.85;2.35;;;16.30;99.90;;;;;;5072647;28;20039;-74
2023/09/15 10:02:45;;;;;;;5.32;2.38;;;16.30;99.90;;;;;;5089057;28;20048;-74
2023/09/15 10:05:11;;;;;;;8.73;2.55;;;16.30;99.90;;;;;;5092058;28;20040;-75
2023/09/15 10:07:37;;;;;;;5.68;2.33;;;16.40;99.90;;;;;;5092737;28;20035;-74
2023/09/15 10:10:06;;;;;;;10.38;2.70;;;16.50;99.90;;;;;;5072491;28;20063;-74
2023/09/15 10:12:32;;;;;;;2.72;1.55;;;16.60;99.90;;;;;;5093417;28;20070;-74
2023/09/15 10:14:58;;;;;;;6.20;2.45;;;16.80;99.90;;;;;;5071984;28;20021;-75
2023/09/15 10:17:26;;;;;;;7.20;2.72;;;16.90;99.90;;;;;;5074935;28;20016;-75
2023/09/15 10:19:53;;;;;;;7.07;2.10;;;17.10;99.90;;;;;;5072859;28;20032;-75
2023/09/15 10:22:20;;;;;;;4.00;1.83;;;17.10;99.90;;;;;;5075042;28;20051;-76
2023/09/15 10:24:47;;;;;;;6.53;2.05;;;17.20;99.90;;;;;;5068511;28;20029;-76
2023/09/15 10:27:17;;;;;;;4.20;2.55;;;17.20;99.90;;;;;;5058759;28;20042;-79
2023/09/15 10:29:45;;;;;;;6.75;2.13;;;17.20;99.90;;;;;;5081162;28;20020;-76
2023/09/15 10:32:16;;;;;;;5.15;2.63;;;17.30;99.90;;;;;;5056574;28;20104;-79
2023/09/15 10:34:44;;;;;;;9.15;3.05;;;17.40;99.90;;;;;;5056366;28;20024;-78
2023/09/15 10:37:12;;;;;;;3.95;2.00;;;17.50;99.90;;;;;;5047902;28;20029;-80
2023/09/15 10:39:40;;;;;;;6.43;3.30;;;17.60;99.90;;;;;;5049010;28;20033;-80
2023/09/15 10:42:13;;;;;;;4.68;2.60;;;17.70;99.90;;;;;;5049320;28;20043;-82
2023/09/15 10:44:40;;;;;;;;;;;17.80;99.90;;;;;;5045776;28;21703;-82
2023/09/15 10:47:21;;;;;;;10.70;2.63;;;17.80;99.90;;;;;;5046470;28;19920;-81
2023/09/15 10:49:54;;;;;;;5.40;2.20;;;18.00;99.90;;;;;;5045058;28;20029;-83
2023/09/15 10:52:33;;;;;;;6.35;1.95;;;18.00;99.90;;;;;;5044554;28;20193;-81
2023/09/15 10:55:00;;;;;;;4.50;2.17;;;18.00;99.90;;;;;;5067946;28;20100;-82
2023/09/15 10:57:25;;;;;;;4.47;2.33;;;18.00;99.90;;;;;;5066474;28;20173;-82
2023/09/15 10:59:54;;;;;;;2.97;1.90;;;18.00;99.90;;;;;;5051820;28;20130;-81
2023/09/15 11:02:26;;;;;;;5.53;1.92;;;18.10;99.90;;;;;;5052711;28;20360;-81
2023/09/15 11:04:52;;;;;;;5.50;2.37;;;18.10;99.90;;;;;;5049784;28;20024;-83
2023/09/15 11:07:19;;;;;;;4.13;1.50;;;18.20;99.90;;;;;;5052169;28;20298;-80
2023/09/15 11:09:45;;;;;;;5.00;1.90;;;18.30;99.90;;;;;;5047401;28;20075;-83
2023/09/15 11:12:13;;;;;;;5.00;2.10;;;18.40;99.90;;;;;;5050833;28;20056;-80
2023/09/15 11:14:39;;;;;;;8.25;2.50;;;18.40;99.90;;;;;;5051121;28;20021;-83
2023/09/15 11:17:05;;;;;;;2.80;1.50;;;18.50;99.90;;;;;;5067301;28;20043;-80
2023/09/15 11:19:37;;;;;;;4.57;1.70;;;18.60;99.90;;;;;;5052484;28;20020;-84
2023/09/15 11:22:05;;;;;;;4.13;1.52;;;18.70;99.90;;;;;;5054260;28;20051;-79
2023/09/15 11:24:34;;;;;;;5.65;1.98;;;18.80;99.90;;;;;;5048395;28;20064;-84
2023/09/15 11:27:00;;;;;;;2.88;1.73;;;18.90;99.90;;;;;;5051119;28;20093;-82
2023/09/15 11:29:30;;;;;;;5.18;1.50;;;18.90;99.90;;;;;;5051176;28;20064;-82
2023/09/15 11:31:56;;;;;;;2.85;1.52;;;18.90;99.90;;;;;;5066367;28;20028;-81
2023/09/15 11:34:22;;;;;;;2.58;1.35;;;18.90;99.90;;;;;;5051503;28;20021;-81
2023/09/15 11:36:49;;;;;;;2.65;1.02;;;18.90;99.90;;;;;;5070502;28;20037;-80
2023/09/15 11:39:16;;;;;;;2.42;1.20;;;18.90;99.90;;;;;;5066355;28;20020;-81
2023/09/15 11:41:56;;;;;;;3.97;1.20;;;19.00;99.90;;;;;;5053040;28;20035;-84
2023/09/15 11:44:25;;;;;;;2.95;1.20;;;19.10;99.90;;;;;;5066123;28;20086;-82
2023/09/15 11:46:55;;;;;;;2.17;1.30;;;19.10;99.90;;;;;;5054252;28;20369;-80
2023/09/15 11:49:22;;;;;;;1.63;1.05;;;19.20;99.90;;;;;;5065875;28;20040;-83
2023/09/15 11:51:51;;;;;;;3.50;1.17;;;19.30;99.90;;;;;;5052472;28;20021;-83
2023/09/15 11:54:18;;;;;;;2.30;1.02;;;19.30;99.90;;;;;;5051943;28;20029;-84
2023/09/15 11:56:46;;;;;;;4.93;1.17;;;19.40;99.90;;;;;;5052203;28;20369;-81
2023/09/15 11:59:14;;;;;;;2.42;1.08;;;19.40;99.90;;;;;;5070848;28;20028;-83
2023/09/15 12:01:40;;;;;;;1.95;0.95;;;19.50;99.90;;;;;;5049632;28;20029;-82
2023/09/15 12:04:06;;;;;;;3.08;1.05;;;19.50;99.90;;;;;;5050825;28;20181;-82
2023/09/15 12:06:32;;;;;;;4.75;1.30;;;19.60;99.90;;;;;;5049373;28;20147;-80
2023/09/15 12:08:58;;;;;;;4.28;1.45;;;19.70;99.90;;;;;;5049149;28;20039;-80
2023/09/15 12:11:24;;;;;;;6.78;1.10;;;19.70;99.90;;;;;;5047416;28;20373;-83
2023/09/15 12:13:54;;;;;;;1.77;1.10;;;19.70;99.90;;;;;;5066219;28;20024;-81
2023/09/15 12:16:28;;;;;;;1.95;1.30;;;19.80;99.90;;;;;;5067467;28;20013;-80
2023/09/15 12:18:55;;;;;;;3.83;1.40;;;19.90;99.90;;;;;;5065864;28;21701;-81
2023/09/15 12:21:24;;;;;;;2.92;1.10;;;19.90;99.90;;;;;;5050933;28;20123;-81
2023/09/15 12:23:51;;;;;;;2.85;1.05;;;20.00;99.90;;;;;;5050800;28;20097;-80
2023/09/15 12:26:20;;;;;;;2.30;0.95;;;20.00;99.90;;;;;;5048217;28;20036;-81
2023/09/15 12:28:46;;;;;;;2.83;1.20;;;20.10;99.90;;;;;;5049862;28;20028;-83
2023/09/15 12:31:20;;;;;;;3.22;1.10;;;20.10;99.90;;;;;;5067527;28;20043;-80
2023/09/15 12:33:46;;;;;;;2.97;0.90;;;20.20;99.90;;;;;;5048086;28;20028;-83
2023/09/15 12:36:18;;;;;;;2.75;1.20;;;20.20;99.90;;;;;;5049365;28;20123;-81
2023/09/15 12:38:44;;;;;;;2.08;1.20;;;20.40;99.90;;;;;;5049096;28;20076;-80
2023/09/15 12:41:09;;;;;;;3.55;1.20;;;20.50;99.90;;;;;;5047082;28;20071;-80
2023/09/15 12:43:35;;;;;;;3.03;1.20;;;20.60;99.90;;;;;;5050589;28;20052;-81
2023/09/15 12:46:03;;;;;;;7.32;1.92;;;20.70;99.90;;;;;;5049818;28;20465;-83